createdAt,value
2019-05-15T00:01:20.199Z,7.47
2019-05-15T00:03:49.636Z,7.31
2019-05-15T00:06:19.274Z,7.34
2019-05-15T00:08:48.711Z,7.28
2019-05-15T00:11:19.227Z,7.31
2019-05-15T00:13:48.866Z,7.21
2019-05-15T00:16:18.390Z,7.19
2019-05-15T00:18:48.348Z,6.99
2019-05-15T00:21:18.117Z,6.85
2019-05-15T00:23:49.477Z,7.01
2019-05-15T00:26:18.922Z,6.86
2019-05-15T00:28:48.363Z,6.94
2019-05-15T00:31:18.616Z,6.93
2019-05-15T00:33:48.375Z,7.00
2019-05-15T00:36:19.304Z,6.92
2019-05-15T00:38:48.854Z,6.97
2019-05-15T00:41:18.584Z,6.86
2019-05-15T00:43:49.411Z,6.83
2019-05-15T00:46:19.067Z,6.77
2019-05-15T00:48:48.862Z,6.93
2019-05-15T00:51:19.603Z,6.88
2019-05-15T00:53:49.157Z,6.90
2019-05-15T00:56:19.504Z,6.91
2019-05-15T00:58:49.029Z,6.80
2019-05-15T01:01:19.268Z,6.77
2019-05-15T01:03:49.289Z,6.64
2019-05-15T01:06:19.231Z,6.63
2019-05-15T01:08:48.760Z,6.52
2019-05-15T01:11:19.153Z,6.43
2019-05-15T01:13:48.763Z,6.46
2019-05-15T01:16:18.597Z,6.26
2019-05-15T01:18:49.150Z,5.94
2019-05-15T01:21:18.939Z,6.13
2019-05-15T01:23:48.551Z,6.18
2019-05-15T01:26:18.934Z,6.17
2019-05-15T01:28:49.648Z,6.16
2019-05-15T01:31:19.261Z,6.16
2019-05-15T01:33:48.743Z,6.14
2019-05-15T01:36:19.287Z,6.17
2019-05-15T01:38:48.938Z,6.06
2019-05-15T01:41:18.867Z,6.02
2019-05-15T01:43:49.130Z,6.03
2019-05-15T01:46:19.220Z,5.96
2019-05-15T01:48:49.374Z,5.92
2019-05-15T01:51:18.942Z,5.87
2019-05-15T01:53:48.382Z,5.79
2019-05-15T01:56:18.874Z,5.88
2019-05-15T01:58:48.814Z,5.89
2019-05-15T02:01:19.187Z,5.82
2019-05-15T02:03:49.336Z,5.76
2019-05-15T02:06:19.133Z,5.70
2019-05-15T02:08:49.737Z,5.67
2019-05-15T02:11:19.350Z,5.72
2019-05-15T02:13:48.790Z,5.65
2019-05-15T02:16:19.170Z,5.58
2019-05-15T02:18:49.021Z,5.53
2019-05-15T02:21:18.574Z,5.45
2019-05-15T02:23:48.235Z,5.41
2019-05-15T02:26:18.847Z,5.53
2019-05-15T02:28:48.921Z,5.57
2019-05-15T02:31:19.564Z,5.48
2019-05-15T02:33:49.734Z,5.38
2019-05-15T02:36:20.558Z,5.48
2019-05-15T02:38:50.295Z,5.22
2019-05-15T02:41:19.748Z,5.27
2019-05-15T02:43:50.180Z,5.19
2019-05-15T02:46:19.872Z,5.03
2019-05-15T02:48:49.432Z,5.09
2019-05-15T02:51:19.565Z,5.16
2019-05-15T02:53:50.109Z,5.08
2019-05-15T02:56:20.705Z,5.12
2019-05-15T02:58:50.235Z,5.06
2019-05-15T03:01:19.833Z,5.13
2019-05-15T03:03:50.102Z,5.13
2019-05-15T03:06:19.698Z,5.13
2019-05-15T03:08:49.915Z,4.91
2019-05-15T03:11:19.838Z,4.98
2019-05-15T03:13:50.421Z,5.12
2019-05-15T03:16:20.090Z,5.00
2019-05-15T03:18:50.442Z,5.11
2019-05-15T03:21:20.601Z,5.01
2019-05-15T03:23:50.933Z,5.12
2019-05-15T03:26:20.523Z,5.06
2019-05-15T03:28:50.041Z,4.89
2019-05-15T03:31:40.821Z,4.80
2019-05-15T03:33:54.324Z,4.70
2019-05-15T03:36:23.969Z,4.80
2019-05-15T03:38:53.044Z,4.81
2019-05-15T03:41:22.505Z,4.81
2019-05-15T03:43:52.017Z,4.86
2019-05-15T03:46:21.531Z,4.77
2019-05-15T03:48:50.989Z,4.84
2019-05-15T03:51:20.429Z,4.69
2019-05-15T03:53:50.061Z,4.79
2019-05-15T03:56:19.656Z,4.89
2019-05-15T03:58:49.567Z,4.93
2019-05-15T04:01:30.258Z,4.87
2019-05-15T04:03:50.434Z,4.77
2019-05-15T04:06:20.009Z,4.88
2019-05-15T04:08:49.866Z,4.90
2019-05-15T04:11:20.327Z,4.90
2019-05-15T04:13:50.301Z,4.84
2019-05-15T04:16:19.839Z,4.78
2019-05-15T04:18:49.438Z,4.88
2019-05-15T04:21:20.091Z,4.95
2019-05-15T04:23:50.665Z,5.04
2019-05-15T04:26:21.123Z,5.03
2019-05-15T04:28:52.904Z,5.25
2019-05-15T04:31:22.341Z,5.38
2019-05-15T04:33:51.781Z,5.36
2019-05-15T04:36:21.236Z,5.43
2019-05-15T04:38:50.675Z,5.51
2019-05-15T04:41:20.359Z,5.69
2019-05-15T04:43:50.019Z,5.63
2019-05-15T04:46:19.974Z,5.76
2019-05-15T04:48:50.438Z,6.04
2019-05-15T04:51:20.155Z,6.19
2019-05-15T04:53:50.468Z,6.39
2019-05-15T04:56:20.101Z,6.46
2019-05-15T04:58:50.610Z,6.57
2019-05-15T05:01:20.549Z,6.49
2019-05-15T05:03:50.014Z,6.58
2019-05-15T05:06:31.801Z,6.70
2019-05-15T05:09:01.242Z,6.69
2019-05-15T05:11:30.818Z,6.59
2019-05-15T05:14:00.258Z,6.71
2019-05-15T05:16:29.717Z,6.84
2019-05-15T05:18:59.540Z,6.91
2019-05-15T05:21:28.974Z,6.94
2019-05-15T05:23:58.655Z,7.05
2019-05-15T05:26:29.334Z,7.23
2019-05-15T05:29:01.318Z,7.33
2019-05-15T05:31:30.610Z,7.45
2019-05-15T05:34:00.143Z,7.64
2019-05-15T05:36:29.581Z,7.80
2019-05-15T05:38:59.109Z,7.81
2019-05-15T05:41:28.545Z,8.03
2019-05-15T05:43:58.747Z,8.24
2019-05-15T05:46:28.234Z,8.38
2019-05-15T05:48:58.286Z,8.62
2019-05-15T05:51:28.243Z,8.81
2019-05-15T05:53:58.973Z,8.99
2019-05-15T05:56:28.818Z,8.98
2019-05-15T05:58:58.686Z,9.08
2019-05-15T06:01:28.407Z,9.25
2019-05-15T06:03:58.363Z,9.34
2019-05-15T06:06:29.293Z,9.52
2019-05-15T06:08:58.818Z,9.66
2019-05-15T06:11:28.278Z,9.93
2019-05-15T06:13:58.383Z,10.09
2019-05-15T06:16:28.389Z,10.17
2019-05-15T06:18:58.634Z,10.34
2019-05-15T06:21:28.617Z,10.29
2019-05-15T06:24:04.193Z,10.42
2019-05-15T06:26:29.315Z,10.34
2019-05-15T06:28:58.780Z,10.48
2019-05-15T06:31:28.259Z,10.53
2019-05-15T06:33:58.166Z,10.59
2019-05-15T06:36:28.806Z,10.62
2019-05-15T06:38:59.041Z,10.81
2019-05-15T06:41:28.790Z,10.81
2019-05-15T06:43:58.936Z,10.83
2019-05-15T06:46:28.465Z,10.94
2019-05-15T06:48:58.228Z,11.15
2019-05-15T06:51:28.806Z,10.91
2019-05-15T06:53:58.505Z,11.21
2019-05-15T06:56:28.249Z,11.25
2019-05-15T06:58:58.272Z,10.94
2019-05-15T07:01:29.490Z,11.25
2019-05-15T07:03:59.181Z,11.15
2019-05-15T07:06:28.830Z,11.41
2019-05-15T07:08:58.731Z,11.37
2019-05-15T07:11:28.351Z,11.50
2019-05-15T07:13:58.146Z,11.68
2019-05-15T07:16:28.461Z,11.52
2019-05-15T07:18:58.875Z,11.34
2019-05-15T07:21:28.665Z,11.27
2019-05-15T07:23:58.527Z,11.33
2019-05-15T07:26:28.980Z,11.33
2019-05-15T07:28:59.573Z,11.35
2019-05-15T07:31:29.188Z,11.46
2019-05-15T07:33:59.872Z,11.50
2019-05-15T07:36:29.528Z,11.58
2019-05-15T07:38:59.018Z,11.45
2019-05-15T07:41:28.585Z,11.35
2019-05-15T07:43:58.643Z,11.81
2019-05-15T07:46:28.850Z,12.07
2019-05-15T07:48:58.540Z,12.20
2019-05-15T07:51:28.691Z,12.37
2019-05-15T07:53:58.616Z,12.67
2019-05-15T07:56:28.947Z,12.69
2019-05-15T07:58:58.722Z,12.96
2019-05-15T08:01:29.082Z,12.88
2019-05-15T08:04:14.507Z,12.99
2019-05-15T08:06:29.898Z,12.54
2019-05-15T08:08:59.389Z,12.37
2019-05-15T08:11:28.913Z,12.71
2019-05-15T08:13:58.418Z,12.57
2019-05-15T08:16:28.746Z,12.29
2019-05-15T08:18:58.360Z,12.56
2019-05-15T08:21:29.254Z,12.87
2019-05-15T08:23:59.163Z,13.25
2019-05-15T08:26:28.652Z,13.31
2019-05-15T08:28:58.180Z,13.43
2019-05-15T08:31:28.832Z,13.61
2019-05-15T08:34:12.348Z,13.74
2019-05-15T08:36:31.349Z,13.94
2019-05-15T08:39:00.916Z,14.15
2019-05-15T08:41:30.381Z,13.88
2019-05-15T08:43:59.833Z,14.11
2019-05-15T08:46:29.275Z,14.34
2019-05-15T08:48:58.990Z,14.17
2019-05-15T08:51:28.534Z,13.61
2019-05-15T08:53:58.195Z,13.94
2019-05-15T08:56:28.926Z,13.65
2019-05-15T08:58:58.626Z,14.05
2019-05-15T09:01:28.782Z,14.38
2019-05-15T09:03:58.367Z,14.17
2019-05-15T09:06:29.065Z,14.28
2019-05-15T09:08:58.822Z,14.40
2019-05-15T09:11:28.467Z,14.65
2019-05-15T09:13:59.556Z,14.93
2019-05-15T09:16:29.087Z,14.64
2019-05-15T09:18:59.195Z,14.45
2019-05-15T09:21:28.775Z,14.24
2019-05-15T09:23:58.973Z,13.92
2019-05-15T09:26:28.565Z,14.08
2019-05-15T09:28:58.570Z,13.83
2019-05-15T09:31:28.586Z,14.24
2019-05-15T09:33:58.712Z,14.52
2019-05-15T09:36:28.832Z,14.40
2019-05-15T09:38:58.709Z,14.32
2019-05-15T09:41:28.719Z,14.78
2019-05-15T09:43:58.193Z,14.89
2019-05-15T09:46:29.185Z,14.81
2019-05-15T09:48:59.798Z,14.49
2019-05-15T09:51:29.245Z,15.03
2019-05-15T09:53:59.559Z,15.36
2019-05-15T09:56:29.233Z,15.44
2019-05-15T09:58:58.753Z,15.51
2019-05-15T10:01:28.586Z,15.22
2019-05-15T10:03:58.159Z,15.19
2019-05-15T10:06:28.700Z,15.65
2019-05-15T10:08:58.253Z,15.69
2019-05-15T10:11:28.942Z,15.98
2019-05-15T10:13:58.670Z,16.24
2019-05-15T10:16:28.148Z,16.04
2019-05-15T10:18:58.167Z,16.42
2019-05-15T10:21:32.136Z,16.08
2019-05-15T10:23:59.294Z,16.55
2019-05-15T10:26:28.994Z,16.14
2019-05-15T10:28:58.585Z,16.45
2019-05-15T10:31:28.396Z,16.66
2019-05-15T10:33:58.417Z,16.30
2019-05-15T10:36:28.144Z,15.60
2019-05-15T10:38:59.266Z,15.69
2019-05-15T10:41:29.107Z,16.04
2019-05-15T10:44:00.419Z,16.37
2019-05-15T10:46:29.722Z,16.66
2019-05-15T10:48:59.166Z,16.61
2019-05-15T10:51:28.815Z,16.91
2019-05-15T10:53:58.236Z,17.17
2019-05-15T10:56:29.154Z,17.29
2019-05-15T10:58:59.010Z,17.46
2019-05-15T11:01:28.540Z,17.54
2019-05-15T11:03:58.829Z,17.59
2019-05-15T11:06:28.837Z,17.88
2019-05-15T11:08:58.553Z,17.34
2019-05-15T11:11:27.969Z,17.74
2019-05-15T11:14:00.283Z,17.77
2019-05-15T11:16:28.581Z,17.90
2019-05-15T11:18:58.536Z,17.68
2019-05-15T11:21:28.312Z,17.82
2019-05-15T11:23:59.060Z,17.80
2019-05-15T11:26:33.074Z,18.18
2019-05-15T11:28:59.818Z,18.32
2019-05-15T11:31:29.347Z,18.41
2019-05-15T11:33:58.791Z,18.52
2019-05-15T11:36:28.931Z,18.28
2019-05-15T11:38:58.472Z,18.21
2019-05-15T11:41:29.540Z,18.07
2019-05-15T11:43:59.142Z,17.89
2019-05-15T11:46:29.103Z,17.89
2019-05-15T11:48:58.915Z,18.25
2019-05-15T11:51:29.150Z,18.50
2019-05-15T11:53:58.910Z,18.41
2019-05-15T11:56:29.658Z,18.43
2019-05-15T11:58:59.562Z,18.54
2019-05-15T12:01:29.091Z,18.99
2019-05-15T12:03:58.914Z,19.26
2019-05-15T12:06:29.229Z,19.25
2019-05-15T12:08:59.397Z,19.63
2019-05-15T12:11:36.667Z,19.63
2019-05-15T12:14:00.066Z,19.76
2019-05-15T12:16:29.579Z,19.84
2019-05-15T12:19:08.977Z,19.96
2019-05-15T12:21:30.197Z,20.12
2019-05-15T12:23:59.640Z,20.30
2019-05-15T12:26:29.472Z,20.44
2019-05-15T12:28:59.205Z,20.63
2019-05-15T12:31:28.642Z,20.89
2019-05-15T12:33:58.599Z,21.06
2019-05-15T12:36:50.066Z,20.86
2019-05-15T12:39:08.535Z,20.92
2019-05-15T13:01:40.070Z,21.36
2019-05-15T13:04:09.506Z,21.46
2019-05-15T13:06:48.130Z,21.35
2019-05-15T13:09:10.135Z,21.79
2019-05-15T13:11:39.581Z,21.80
2019-05-15T13:14:09.051Z,22.08
2019-05-15T13:16:39.055Z,22.58
2019-05-15T13:19:08.498Z,22.76
2019-05-15T13:21:38.121Z,22.86
2019-05-15T13:24:08.111Z,23.11
2019-05-15T13:26:38.467Z,23.41
2019-05-15T13:29:09.029Z,23.25
2019-05-15T13:31:38.556Z,23.65
2019-05-15T13:34:08.274Z,23.56
2019-05-15T13:36:39.296Z,23.49
2019-05-15T13:39:09.022Z,24.22
2019-05-15T13:41:38.716Z,24.31
2019-05-15T13:44:09.018Z,25.66
2019-05-15T13:46:38.640Z,26.91
2019-05-15T13:49:08.438Z,28.59
2019-05-15T13:51:38.381Z,28.93
2019-05-15T13:54:08.642Z,29.49
2019-05-15T13:56:38.307Z,29.94
2019-05-15T13:59:08.144Z,27.27
2019-05-15T14:01:39.280Z,28.58
2019-05-15T14:04:08.940Z,29.67
2019-05-15T14:06:38.385Z,29.00
2019-05-15T14:09:09.052Z,29.57
2019-05-15T14:11:39.125Z,30.59
2019-05-15T14:14:08.746Z,31.43
2019-05-15T14:16:38.548Z,31.79
2019-05-15T14:19:08.433Z,29.39
2019-05-15T14:21:38.089Z,29.17
2019-05-15T14:24:09.028Z,29.59
2019-05-15T14:26:38.663Z,28.59
2019-05-15T14:29:09.093Z,28.26
2019-05-15T14:31:39.481Z,28.40
2019-05-15T14:34:09.107Z,29.34
2019-05-15T14:36:38.739Z,30.01
2019-05-15T14:39:08.619Z,31.00
2019-05-15T14:41:38.331Z,31.71
2019-05-15T14:44:16.837Z,30.76
2019-05-15T14:46:39.227Z,29.43
2019-05-15T14:49:09.107Z,30.04
2019-05-15T14:51:39.131Z,30.11
2019-05-15T14:54:09.221Z,30.87
2019-05-15T14:56:38.914Z,31.28
2019-05-15T14:59:09.178Z,32.34
2019-05-15T15:01:38.792Z,31.26
2019-05-15T15:04:08.834Z,28.73
2019-05-15T15:06:38.741Z,26.08
2019-05-15T15:09:09.239Z,25.92
2019-05-15T15:11:38.738Z,28.02
2019-05-15T15:14:08.559Z,28.67
2019-05-15T15:16:38.613Z,29.01
2019-05-15T15:19:08.103Z,29.48
2019-05-15T15:21:38.374Z,30.88
2019-05-15T15:24:08.438Z,30.25
2019-05-15T15:26:39.081Z,30.30
2019-05-15T15:29:08.859Z,29.59
2019-05-15T15:31:38.975Z,28.56
2019-05-15T15:34:08.802Z,27.20
2019-05-15T15:36:38.277Z,26.65
2019-05-15T15:39:08.672Z,26.22
2019-05-15T15:41:39.059Z,27.16
2019-05-15T15:44:08.916Z,28.20
2019-05-15T15:46:39.457Z,26.55
2019-05-15T15:49:09.344Z,27.11
2019-05-15T15:51:39.066Z,28.47
2019-05-15T15:54:08.674Z,30.28
2019-05-15T15:56:39.277Z,31.02
2019-05-15T15:59:09.223Z,32.17
2019-05-15T16:01:39.264Z,33.31
2019-05-15T16:04:08.977Z,32.81
2019-05-15T16:06:38.863Z,30.97
2019-05-15T16:09:09.784Z,29.88
2019-05-15T16:11:39.248Z,28.73
2019-05-15T16:14:09.292Z,27.49
2019-05-15T16:16:38.879Z,27.05
2019-05-15T16:19:08.346Z,26.91
2019-05-15T16:21:39.392Z,28.16
2019-05-15T16:24:17.274Z,28.94
2019-05-15T16:26:40.065Z,29.35
2019-05-15T16:29:09.523Z,28.40
2019-05-15T16:31:38.963Z,27.96
2019-05-15T16:34:08.405Z,27.41
2019-05-15T16:36:38.519Z,26.59
2019-05-15T16:39:11.679Z,25.85
2019-05-15T16:41:39.851Z,24.78
2019-05-15T16:44:09.323Z,23.84
2019-05-15T16:46:39.333Z,23.75
2019-05-15T16:49:08.773Z,24.43
2019-05-15T16:51:38.449Z,23.95
2019-05-15T16:54:08.818Z,23.74
2019-05-15T16:56:40.102Z,25.09
2019-05-15T16:59:09.716Z,25.63
2019-05-15T17:01:39.559Z,25.97
2019-05-15T17:04:09.045Z,25.22
2019-05-15T17:06:38.810Z,24.55
2019-05-15T17:09:21.091Z,23.71
2019-05-15T17:11:45.541Z,23.05
2019-05-15T17:14:14.989Z,22.69
2019-05-15T17:16:44.454Z,22.52
2019-05-15T17:19:13.899Z,22.01
2019-05-15T17:21:43.339Z,21.62
2019-05-15T17:24:12.805Z,21.59
2019-05-15T17:26:42.255Z,21.67
2019-05-15T17:29:11.696Z,21.77
2019-05-15T17:31:41.336Z,21.83
2019-05-15T17:34:10.779Z,21.69
2019-05-15T17:36:40.229Z,21.29
2019-05-15T17:39:09.764Z,21.86
2019-05-15T17:41:39.273Z,22.57
2019-05-15T17:44:08.749Z,23.57
2019-05-15T17:46:38.694Z,23.90
2019-05-15T17:49:15.220Z,22.96
2019-05-15T17:51:39.371Z,21.92
2019-05-15T17:54:08.966Z,21.48
2019-05-15T17:56:39.302Z,20.75
2019-05-15T17:59:09.169Z,20.57
2019-05-15T18:01:38.636Z,20.42
2019-05-15T18:04:08.576Z,19.95
2019-05-15T18:06:39.843Z,20.01
2019-05-15T18:09:09.551Z,19.72
2019-05-15T18:11:39.006Z,19.44
2019-05-15T18:14:09.051Z,19.41
2019-05-15T18:16:38.498Z,19.24
2019-05-15T18:19:08.425Z,19.06
2019-05-15T18:21:38.556Z,18.85
2019-05-15T18:24:09.485Z,18.66
2019-05-15T18:26:39.032Z,18.67
2019-05-15T18:29:09.141Z,18.58
2019-05-15T18:31:38.687Z,18.43
2019-05-15T18:34:08.454Z,18.22
2019-05-15T18:36:39.239Z,18.19
2019-05-15T18:39:09.195Z,17.47
2019-05-15T18:41:38.728Z,17.47
2019-05-15T18:44:08.167Z,17.26
2019-05-15T18:46:38.145Z,17.10
2019-05-15T18:49:07.816Z,16.72
2019-05-15T18:51:38.588Z,16.56
2019-05-15T18:54:08.219Z,16.45
2019-05-15T18:56:38.658Z,16.37
2019-05-15T18:59:08.638Z,16.31
2019-05-15T19:01:39.393Z,16.03
2019-05-15T19:04:09.011Z,15.87
2019-05-15T19:06:38.732Z,15.76
2019-05-15T19:09:09.429Z,15.67
2019-05-15T19:11:38.874Z,15.67
2019-05-15T19:14:08.476Z,15.60
2019-05-15T19:16:38.784Z,15.60
2019-05-15T19:19:08.691Z,15.57
2019-05-15T19:21:38.343Z,15.27
2019-05-15T19:24:07.871Z,15.25
2019-05-15T19:26:37.337Z,15.40
2019-05-15T19:29:09.510Z,15.32
2019-05-15T19:31:39.259Z,14.94
2019-05-15T19:34:09.059Z,14.93
2019-05-15T19:36:38.506Z,15.07
2019-05-15T19:39:08.209Z,15.08
2019-05-15T19:41:38.279Z,15.08
2019-05-15T19:44:08.772Z,15.07
2019-05-15T19:46:38.785Z,15.13
2019-05-15T19:49:08.729Z,14.94
2019-05-15T19:51:38.440Z,14.90
2019-05-15T19:54:09.288Z,14.73
2019-05-15T19:56:39.238Z,14.74
2019-05-15T19:59:08.979Z,14.78
2019-05-15T20:01:38.571Z,14.73
2019-05-15T20:04:08.153Z,14.60
2019-05-15T20:06:38.755Z,14.45
2019-05-15T20:09:08.437Z,14.30
2019-05-15T20:11:38.482Z,14.16
2019-05-15T20:14:08.079Z,14.41
2019-05-15T20:16:38.836Z,14.37
2019-05-15T20:19:08.817Z,14.47
2019-05-15T20:21:38.602Z,14.49
2019-05-15T20:24:08.570Z,14.54
2019-05-15T20:26:38.225Z,14.55
2019-05-15T20:29:09.091Z,14.35
2019-05-15T20:31:38.707Z,14.44
2019-05-15T20:34:09.394Z,14.37
2019-05-15T20:36:39.038Z,14.56
2019-05-15T20:39:08.630Z,14.56
2019-05-15T20:41:38.541Z,14.49
2019-05-15T20:44:08.858Z,14.53
2019-05-15T20:46:39.215Z,14.61
2019-05-15T20:49:08.753Z,14.32
2019-05-15T20:51:39.104Z,14.55
2019-05-15T20:54:08.747Z,14.74
2019-05-15T20:56:38.532Z,14.79
2019-05-15T20:59:08.884Z,14.94
2019-05-15T21:01:38.432Z,15.03
2019-05-15T21:04:18.927Z,15.14
2019-05-15T21:06:39.121Z,15.13
2019-05-15T21:09:08.920Z,15.01
2019-05-15T21:11:39.777Z,15.04
2019-05-15T21:14:09.385Z,15.03
2019-05-15T21:16:38.835Z,15.03
2019-05-15T21:19:09.933Z,14.81
2019-05-15T21:21:39.373Z,14.83
2019-05-15T21:24:11.269Z,14.85
2019-05-15T21:26:40.713Z,14.73
2019-05-15T21:29:10.414Z,14.82
2019-05-15T21:31:40.093Z,14.71
2019-05-15T21:34:09.480Z,14.73
2019-05-15T21:36:39.515Z,14.77
2019-05-15T21:39:08.958Z,14.25
2019-05-15T21:41:38.901Z,14.42
2019-05-15T21:44:08.746Z,14.46
2019-05-15T21:46:38.519Z,14.26
2019-05-15T21:49:08.877Z,14.30
2019-05-15T21:51:38.601Z,14.44
2019-05-15T21:54:09.963Z,14.52
2019-05-15T21:56:39.251Z,14.61
2019-05-15T21:59:08.717Z,14.55
2019-05-15T22:01:41.210Z,14.19
2019-05-15T22:04:10.736Z,14.15
2019-05-15T22:06:42.063Z,14.11
2019-05-15T22:09:13.218Z,14.11
2019-05-15T22:11:42.735Z,14.14
2019-05-15T22:14:12.196Z,14.31
2019-05-15T22:16:41.706Z,14.41
2019-05-15T22:19:14.569Z,14.49
2019-05-15T22:21:44.431Z,14.58
2019-05-15T22:24:13.900Z,14.54
2019-05-15T22:26:43.420Z,14.31
2019-05-15T22:29:13.042Z,14.37
2019-05-15T22:31:42.499Z,14.28
2019-05-15T22:34:11.941Z,14.23
2019-05-15T22:36:41.401Z,14.35
2019-05-15T22:39:10.837Z,14.45
2019-05-15T22:41:40.299Z,14.42
2019-05-15T22:44:10.335Z,14.45
2019-05-15T22:46:39.852Z,14.40
2019-05-15T22:49:09.309Z,14.50
2019-05-15T22:51:38.765Z,14.52
2019-05-15T22:54:08.777Z,14.45
2019-05-15T22:56:38.285Z,14.44
2019-05-15T22:59:08.550Z,14.46
2019-05-15T23:01:38.911Z,14.53
2019-05-15T23:04:09.081Z,14.48
2019-05-15T23:06:39.009Z,14.40
2019-05-15T23:09:08.594Z,14.40
2019-05-15T23:11:39.246Z,14.46
2019-05-15T23:14:08.995Z,14.53
2019-05-15T23:16:39.153Z,14.55
2019-05-15T23:19:08.645Z,14.49
2019-05-15T23:21:40.260Z,14.50
2019-05-15T23:24:09.268Z,14.48
2019-05-15T23:26:38.926Z,14.43
2019-05-15T23:29:08.357Z,14.44
2019-05-15T23:31:37.821Z,14.40
2019-05-15T23:34:08.083Z,14.37
2019-05-15T23:36:38.002Z,14.35
2019-05-15T23:39:08.340Z,14.29
2019-05-15T23:41:37.790Z,14.29
2019-05-15T23:44:08.255Z,14.23
2019-05-15T23:46:38.201Z,14.29
2019-05-15T23:49:08.293Z,14.22
2019-05-15T23:51:38.499Z,14.10
2019-05-15T23:54:08.406Z,13.93
2019-05-15T23:56:38.770Z,13.81
2019-05-15T23:59:08.603Z,13.50
